Time;durP1;ratioP1;P1;durP2;ratioP2;P2;SDS_P1;SDS_P2;PMS_P1;PMS_P2;Temp;Humidity;BMP_temperature;BMP_pressure;BME280_temperature;BME280_humidity;BME280_pressure;Samples;Min_cycle;Max_cycle;Signal;HPM_P1;HPM_P2
2022/08/08 00:01:42;;;;;;;;;;;13.90;99.90;;;;;;5049713;28;20577;-82
2022/08/08 00:04:20;;;;;;;0.43;0.30;;;13.90;99.90;;;;;;5076930;28;20323;-82
2022/08/08 00:07:14;;;;;;;0.20;0.20;;;13.90;99.90;;;;;;5089508;28;20037;-84
2022/08/08 00:10:05;;;;;;;0.10;0.10;;;13.90;99.90;;;;;;5105837;28;20043;-82
2022/08/08 00:12:51;;;;;;;0.10;0.10;;;13.90;99.90;;;;;;5089445;28;20041;-82
2022/08/08 00:15:22;;;;;;;0.32;0.22;;;13.90;99.90;;;;;;5075373;28;20528;-84
2022/08/08 00:18:04;;;;;;;0.20;0.20;;;13.80;99.90;;;;;;5088767;28;20056;-83
2022/08/08 00:20:37;;;;;;;0.10;0.10;;;13.80;99.90;;;;;;5089428;28;20078;-84
2022/08/08 00:23:15;;;;;;;0.20;0.10;;;13.80;99.90;;;;;;5089432;28;20071;-82
2022/08/08 00:25:46;;;;;;;0.10;0.10;;;13.80;99.90;;;;;;5088634;28;20045;-82
2022/08/08 00:28:17;;;;;;;0.93;0.20;;;13.70;99.90;;;;;;5089395;28;20409;-83
2022/08/08 00:30:52;;;;;;;0.55;0.38;;;13.70;99.90;;;;;;5089197;28;20485;-82
2022/08/08 00:33:23;;;;;;;0.22;0.20;;;13.70;99.90;;;;;;5089241;28;20378;-82
2022/08/08 00:36:07;;;;;;;0.15;0.15;;;13.60;99.90;;;;;;5088957;28;20494;-84
2022/08/08 00:38:45;;;;;;;0.15;0.15;;;13.60;99.90;;;;;;5088767;28;20178;-84
2022/08/08 00:41:33;;;;;;;0.32;0.30;;;13.60;99.90;;;;;;5089022;28;20059;-83
2022/08/08 00:44:09;;;;;;;0.10;0.10;;;13.60;99.90;;;;;;5089041;28;20036;-84
2022/08/08 00:47:08;;;;;;;0.25;0.20;;;13.60;99.90;;;;;;5088422;28;20075;-83
2022/08/08 00:49:52;;;;;;;0.17;0.10;;;13.60;99.90;;;;;;5061505;28;20131;-81
2022/08/08 00:52:31;;;;;;;0.10;0.10;;;13.60;99.90;;;;;;5089722;28;20030;-83
2022/08/08 00:55:29;;;;;;;0.00;0.00;;;13.60;99.90;;;;;;5092353;28;20477;-82
2022/08/08 00:58:18;;;;;;;0.20;0.20;;;13.50;99.90;;;;;;5092492;28;20496;-84
2022/08/08 01:01:15;;;;;;;0.20;0.20;;;13.50;99.90;;;;;;5092276;28;21217;-82
2022/08/08 01:04:03;;;;;;;0.20;0.20;;;13.50;99.90;;;;;;5092074;28;20055;-82
2022/08/08 01:07:01;;;;;;;0.13;0.13;;;13.50;99.90;;;;;;5092168;28;20040;-82
2022/08/08 01:09:38;;;;;;;0.25;0.20;;;13.50;99.90;;;;;;5091856;28;20507;-82
2022/08/08 01:12:10;;;;;;;0.10;0.10;;;13.40;99.90;;;;;;5092437;28;20389;-84
2022/08/08 01:15:16;;;;;;;0.22;0.20;;;13.40;99.90;;;;;;5108921;28;20044;-82
2022/08/08 01:18:10;;;;;;;0.17;0.17;;;13.40;99.90;;;;;;5020583;28;20053;-82
2022/08/08 01:21:06;;;;;;;0.10;0.10;;;13.40;99.90;;;;;;5092436;28;20087;-84
2022/08/08 01:24:18;;;;;;;0.10;0.10;;;13.40;99.90;;;;;;5091872;28;20117;-82
2022/08/08 01:27:06;;;;;;;0.30;0.30;;;13.40;99.90;;;;;;5073015;28;20041;-82
2022/08/08 01:30:04;;;;;;;0.10;0.10;;;13.30;99.90;;;;;;5092040;28;20044;-83
2022/08/08 01:32:56;;;;;;;0.22;0.10;;;13.30;99.90;;;;;;5095940;28;20036;-83
2022/08/08 01:35:32;;;;;;;0.10;0.10;;;13.20;99.90;;;;;;5066498;28;20104;-82
2022/08/08 01:38:17;;;;;;;;;;;13.20;99.90;;;;;;5076093;28;20040;-82
2022/08/08 01:41:10;;;;;;;0.10;0.10;;;13.20;99.90;;;;;;5075490;28;20389;-83
2022/08/08 01:44:01;;;;;;;0.13;0.13;;;13.20;99.90;;;;;;5075379;28;20036;-82
2022/08/08 01:47:10;;;;;;;0.28;0.28;;;13.20;99.90;;;;;;5075216;28;20485;-81
2022/08/08 01:49:45;;;;;;;0.30;0.30;;;13.10;99.90;;;;;;5069934;28;20421;-82
2022/08/08 01:52:33;;;;;;;0.20;0.20;;;13.10;99.90;;;;;;5075356;28;20040;-84
2022/08/08 01:55:14;;;;;;;0.25;0.25;;;13.10;99.90;;;;;;5091879;28;20417;-82
2022/08/08 01:57:59;;;;;;;0.38;0.20;;;13.10;99.90;;;;;;5075608;28;20052;-84
2022/08/08 02:00:42;;;;;;;0.30;0.22;;;13.10;99.90;;;;;;5055210;28;20041;-82
2022/08/08 02:03:16;;;;;;;0.30;0.30;;;13.10;99.90;;;;;;5055603;28;20037;-84
2022/08/08 02:05:44;;;;;;;0.35;0.30;;;13.10;99.90;;;;;;5071536;28;20088;-82
2022/08/08 02:08:11;;;;;;;0.32;0.30;;;13.10;99.90;;;;;;5055074;28;20420;-82
2022/08/08 02:10:43;;;;;;;0.45;0.28;;;13.10;99.90;;;;;;5054624;28;20037;-84
2022/08/08 02:13:32;;;;;;;0.22;0.22;;;13.10;99.90;;;;;;5054908;28;20497;-82
2022/08/08 02:16:08;;;;;;;0.10;0.10;;;13.10;99.90;;;;;;5054729;28;20045;-83
2022/08/08 02:18:59;;;;;;;0.47;0.30;;;13.10;99.90;;;;;;5054727;28;20041;-84
2022/08/08 02:24:40;;;;;;;0.10;0.10;;;13.00;99.90;;;;;;5070897;28;20044;-84
2022/08/08 02:27:16;;;;;;;0.32;0.20;;;13.00;99.90;;;;;;5054650;28;20076;-83
2022/08/08 02:29:54;;;;;;;0.17;0.13;;;13.00;99.90;;;;;;5066548;28;20045;-82
2022/08/08 02:32:56;;;;;;;0.20;0.20;;;12.90;99.90;;;;;;5054668;28;20045;-82
2022/08/08 02:35:37;;;;;;;0.43;0.30;;;12.90;99.90;;;;;;4988719;28;20049;-82
2022/08/08 02:38:42;;;;;;;0.20;0.20;;;12.90;99.90;;;;;;5054530;28;20045;-82
2022/08/08 02:41:33;;;;;;;0.17;0.17;;;12.90;99.90;;;;;;5054189;28;20033;-82
2022/08/08 02:44:19;;;;;;;1.40;0.30;;;12.80;99.90;;;;;;5054335;28;20055;-83
2022/08/08 02:47:08;;;;;;;0.10;0.10;;;12.90;99.90;;;;;;5054025;28;20123;-84
2022/08/08 02:49:55;;;;;;;0.35;0.20;;;12.80;99.90;;;;;;5056648;28;20032;-83
2022/08/08 02:52:47;;;;;;;0.35;0.28;;;12.80;99.90;;;;;;5054326;28;20041;-82
2022/08/08 02:55:33;;;;;;;0.17;0.15;;;12.80;99.90;;;;;;5054283;28;20572;-84
2022/08/08 02:58:33;;;;;;;0.28;0.28;;;12.80;99.90;;;;;;5053739;28;20049;-84
2022/08/08 03:01:17;;;;;;;0.75;0.30;;;12.80;99.90;;;;;;5079235;28;20115;-82
2022/08/08 03:04:12;;;;;;;0.30;0.28;;;12.70;99.90;;;;;;5093727;28;20036;-82
2022/08/08 03:07:17;;;;;;;0.38;0.20;;;12.80;99.90;;;;;;5094150;28;20039;-84
2022/08/08 03:09:44;;;;;;;0.43;0.40;;;12.70;99.90;;;;;;5093772;28;20036;-82
2022/08/08 03:12:42;;;;;;;0.30;0.30;;;12.70;99.90;;;;;;5076532;28;20051;-84
2022/08/08 03:15:43;;;;;;;8.35;0.60;;;12.70;99.90;;;;;;5073225;28;20512;-82
2022/08/08 03:18:21;;;;;;;0.25;0.20;;;12.70;99.90;;;;;;5073606;28;20102;-82
2022/08/08 03:20:49;;;;;;;1.02;0.35;;;12.70;99.90;;;;;;5043484;28;20043;-82
2022/08/08 03:23:16;;;;;;;0.35;0.30;;;12.70;99.90;;;;;;5076354;28;20039;-83
2022/08/08 03:25:47;;;;;;;0.30;0.30;;;12.70;99.90;;;;;;5056668;28;20494;-82
2022/08/08 03:28:20;;;;;;;0.63;0.50;;;12.70;99.90;;;;;;5073285;28;20040;-82
2022/08/08 03:30:47;;;;;;;0.20;0.20;;;12.70;99.90;;;;;;5073301;28;20051;-84
2022/08/08 03:33:17;;;;;;;0.50;0.28;;;12.70;99.90;;;;;;5091844;28;20058;-84
2022/08/08 03:35:47;;;;;;;0.10;0.10;;;12.80;99.90;;;;;;5077283;28;20044;-83
2022/08/08 03:38:15;;;;;;;0.32;0.20;;;12.80;99.90;;;;;;5093609;28;20070;-83
2022/08/08 03:40:50;;;;;;;0.20;0.20;;;12.80;99.90;;;;;;5077175;28;20447;-84
2022/08/08 03:43:17;;;;;;;0.67;0.50;;;12.80;99.90;;;;;;5075684;28;20056;-82
2022/08/08 03:45:44;;;;;;;0.90;0.55;;;12.80;99.90;;;;;;5069541;28;20037;-84
2022/08/08 03:48:11;;;;;;;0.32;0.30;;;12.80;99.90;;;;;;5052892;28;20106;-82
2022/08/08 03:50:48;;;;;;;0.22;0.22;;;12.90;99.90;;;;;;5053049;28;20044;-82
2022/08/08 03:53:19;;;;;;;0.22;0.22;;;12.90;99.90;;;;;;5054217;28;20052;-83
2022/08/08 03:55:48;;;;;;;0.20;0.20;;;12.90;99.90;;;;;;5109351;28;20682;-82
2022/08/08 03:58:21;;;;;;;0.35;0.30;;;12.90;99.90;;;;;;5092850;28;20079;-83
2022/08/08 04:00:53;;;;;;;0.20;0.20;;;13.00;99.90;;;;;;5092935;28;20107;-82
2022/08/08 04:03:21;;;;;;;0.17;0.17;;;13.00;99.90;;;;;;5075420;28;20032;-82
2022/08/08 04:05:48;;;;;;;0.20;0.20;;;13.00;99.90;;;;;;5060155;28;20048;-82
2022/08/08 04:08:21;;;;;;;0.20;0.20;;;13.00;99.90;;;;;;5056152;28;20043;-82
2022/08/08 04:10:49;;;;;;;0.43;0.30;;;13.00;99.90;;;;;;5073097;28;20052;-84
2022/08/08 04:13:17;;;;;;;1.23;0.65;;;13.10;99.90;;;;;;5089744;28;20056;-83
2022/08/08 04:15:44;;;;;;;0.35;0.30;;;13.10;99.90;;;;;;5076305;28;20042;-82
2022/08/08 04:18:11;;;;;;;0.40;0.30;;;13.20;99.90;;;;;;5092191;28;20044;-82
2022/08/08 04:20:37;;;;;;;0.43;0.30;;;13.20;99.90;;;;;;5092959;28;20040;-84
2022/08/08 04:23:04;;;;;;;0.43;0.32;;;13.20;99.90;;;;;;5075847;28;20036;-83
2022/08/08 04:25:32;;;;;;;0.30;0.30;;;13.30;99.90;;;;;;5050237;28;20044;-82
2022/08/08 04:27:59;;;;;;;0.20;0.20;;;13.40;99.90;;;;;;5090702;28;20036;-83
2022/08/08 04:30:25;;;;;;;0.20;0.20;;;13.40;99.90;;;;;;5076609;28;20039;-81
2022/08/08 04:32:52;;;;;;;0.55;0.40;;;13.50;99.90;;;;;;5076247;28;20447;-82
2022/08/08 04:35:19;;;;;;;0.20;0.20;;;13.50;99.90;;;;;;5101585;28;20044;-81
2022/08/08 04:37:46;;;;;;;0.28;0.20;;;13.60;99.90;;;;;;5039725;28;20094;-82
2022/08/08 04:40:13;;;;;;;1.17;0.38;;;13.70;99.90;;;;;;5039386;28;20037;-82
2022/08/08 04:42:40;;;;;;;0.22;0.20;;;13.70;99.90;;;;;;5072593;28;20036;-82
2022/08/08 04:45:07;;;;;;;0.25;0.25;;;13.80;99.90;;;;;;5039377;28;20079;-82
2022/08/08 04:47:34;;;;;;;0.22;0.17;;;13.80;99.90;;;;;;5055927;28;20401;-82
2022/08/08 04:50:01;;;;;;;0.20;0.20;;;13.90;99.90;;;;;;5072105;28;20044;-82
2022/08/08 04:52:28;;;;;;;0.10;0.10;;;14.00;99.90;;;;;;5055683;28;20120;-82
2022/08/08 04:54:55;;;;;;;0.20;0.20;;;14.00;99.90;;;;;;5055891;28;20128;-82
2022/08/08 04:57:22;;;;;;;0.30;0.30;;;14.00;99.90;;;;;;5040872;28;20477;-82
2022/08/08 04:59:49;;;;;;;0.30;0.30;;;14.10;99.90;;;;;;5055840;28;20094;-84
2022/08/08 05:02:16;;;;;;;0.22;0.22;;;14.10;99.90;;;;;;5055736;28;20095;-83
2022/08/08 05:04:43;;;;;;;0.60;0.30;;;14.10;99.90;;;;;;5074241;28;20052;-84
2022/08/08 05:07:10;;;;;;;0.47;0.30;;;14.10;99.90;;;;;;5061350;28;20127;-83
2022/08/08 05:09:36;;;;;;;0.63;0.45;;;14.20;99.90;;;;;;5060154;28;20056;-83
2022/08/08 05:12:03;;;;;;;0.25;0.25;;;14.30;99.90;;;;;;5076062;28;20032;-82
2022/08/08 05:14:30;;;;;;;0.28;0.20;;;14.30;99.90;;;;;;5059329;28;20044;-84
2022/08/08 05:16:57;;;;;;;0.20;0.20;;;14.30;99.90;;;;;;5043183;28;20037;-82
2022/08/08 05:19:24;;;;;;;0.38;0.32;;;14.40;99.90;;;;;;5059123;28;20512;-82
2022/08/08 05:21:54;;;;;;;0.38;0.38;;;14.40;99.90;;;;;;5043250;28;20028;-82
2022/08/08 05:24:21;;;;;;;0.20;0.20;;;14.50;99.90;;;;;;5043680;28;20093;-84
2022/08/08 05:26:48;;;;;;;0.20;0.20;;;14.50;99.90;;;;;;5059816;28;20131;-83
2022/08/08 05:29:14;;;;;;;0.20;0.20;;;14.50;99.90;;;;;;5095351;28;20467;-81
2022/08/08 05:31:41;;;;;;;0.15;0.15;;;14.60;99.90;;;;;;5096186;28;20084;-82
2022/08/08 05:34:34;;;;;;;0.25;0.20;;;14.60;99.90;;;;;;5095577;28;20047;-83
2022/08/08 05:37:03;;;;;;;0.20;0.20;;;14.70;99.90;;;;;;5095485;28;20044;-83
2022/08/08 05:39:30;;;;;;;0.45;0.30;;;14.70;99.90;;;;;;5094060;28;20077;-84
2022/08/08 05:41:59;;;;;;;0.30;0.30;;;14.70;99.90;;;;;;5043006;28;20481;-83
2022/08/08 05:44:29;;;;;;;0.30;0.30;;;14.80;99.90;;;;;;5058581;28;20044;-82
2022/08/08 05:46:57;;;;;;;0.28;0.20;;;14.80;99.90;;;;;;5075533;28;20101;-81
2022/08/08 05:49:24;;;;;;;0.52;0.40;;;14.90;99.90;;;;;;5058996;28;20063;-84
2022/08/08 05:51:51;;;;;;;0.17;0.15;;;15.00;99.90;;;;;;5058756;28;20036;-84
2022/08/08 05:54:19;;;;;;;0.10;0.10;;;15.00;99.90;;;;;;5041811;28;20104;-83
2022/08/08 05:56:46;;;;;;;0.17;0.15;;;15.10;99.90;;;;;;5091886;28;20044;-83
2022/08/08 05:59:16;;;;;;;0.13;0.13;;;15.10;99.90;;;;;;5063142;28;20046;-83
2022/08/08 06:01:55;;;;;;;0.20;0.20;;;15.20;99.90;;;;;;5095243;28;20097;-83
2022/08/08 06:04:26;;;;;;;0.52;0.50;;;15.30;99.90;;;;;;5091406;28;20068;-82
2022/08/08 06:06:56;;;;;;;0.70;0.32;;;15.30;99.90;;;;;;5058663;28;20051;-82
2022/08/08 06:09:33;;;;;;;0.30;0.30;;;15.40;99.90;;;;;;5072279;28;20505;-84
2022/08/08 06:12:02;;;;;;;0.10;0.10;;;15.40;99.90;;;;;;5075185;28;20029;-83
2022/08/08 06:14:30;;;;;;;0.43;0.40;;;15.50;99.90;;;;;;5075111;28;20041;-83
2022/08/08 06:17:00;;;;;;;0.15;0.15;;;15.60;99.90;;;;;;5064474;28;20045;-83
2022/08/08 06:19:27;;;;;;;0.10;0.10;;;15.70;99.90;;;;;;5062136;28;20485;-83
2022/08/08 06:21:54;;;;;;;0.08;0.08;;;15.80;99.90;;;;;;5057978;28;20378;-82
2022/08/08 06:24:21;;;;;;;0.57;0.40;;;15.80;99.90;;;;;;5082190;28;20118;-82
2022/08/08 06:26:59;;;;;;;0.47;0.30;;;15.90;99.90;;;;;;5057984;28;20045;-82
2022/08/08 06:29:37;;;;;;;0.20;0.20;;;15.90;99.90;;;;;;5074470;28;20087;-84
2022/08/08 06:32:09;;;;;;;0.70;0.28;;;15.90;99.90;;;;;;5074991;28;20032;-82
2022/08/08 06:34:38;;;;;;;0.38;0.28;;;16.00;99.90;;;;;;5074046;28;20040;-83
2022/08/08 06:37:11;;;;;;;0.10;0.10;;;16.10;99.90;;;;;;5057814;28;20051;-83
2022/08/08 06:39:46;;;;;;;0.20;0.13;;;16.20;99.90;;;;;;5074325;28;20072;-85
2022/08/08 06:42:13;;;;;;;1.00;0.47;;;16.30;99.90;;;;;;5087838;28;20036;-85
2022/08/08 06:44:41;;;;;;;0.17;0.17;;;16.30;99.90;;;;;;5055767;28;20036;-85
2022/08/08 06:47:08;;;;;;;0.35;0.20;;;16.30;99.90;;;;;;5057871;28;20105;-85
2022/08/08 06:49:36;;;;;;;0.20;0.13;;;16.50;99.90;;;;;;5057781;28;20040;-85
2022/08/08 06:52:03;;;;;;;0.20;0.20;;;16.50;99.90;;;;;;5040614;28;20052;-84
2022/08/08 06:54:31;;;;;;;0.10;0.10;;;16.60;99.90;;;;;;5057335;28;20053;-84
2022/08/08 06:56:59;;;;;;;0.03;0.03;;;16.60;99.90;;;;;;5057645;28;20036;-84
2022/08/08 06:59:26;;;;;;;0.25;0.20;;;16.70;99.90;;;;;;5074133;28;20066;-85
2022/08/08 07:02:01;;;;;;;0.20;0.20;;;16.70;99.90;;;;;;5061266;28;20041;-85
2022/08/08 07:05:06;;;;;;;;;;;16.80;99.90;;;;;;5057402;28;20115;-84
2022/08/08 07:07:48;;;;;;;0.20;0.20;;;16.80;99.90;;;;;;4986713;28;19926;-85
2022/08/08 07:10:20;;;;;;;0.10;0.05;;;16.90;99.90;;;;;;4990522;28;20420;-85
2022/08/08 07:12:58;;;;;;;0.10;0.10;;;17.00;99.90;;;;;;5075303;28;20056;-85
2022/08/08 07:15:43;;;;;;;0.50;0.30;;;17.00;99.90;;;;;;5081666;28;20043;-84
2022/08/08 07:18:10;;;;;;;0.22;0.20;;;17.10;99.90;;;;;;5077180;28;20097;-84
2022/08/08 07:20:42;;;;;;;0.30;0.20;;;17.20;99.90;;;;;;5040819;28;20062;-84
2022/08/08 07:23:17;;;;;;;0.32;0.28;;;17.20;99.90;;;;;;5089742;28;20036;-85
2022/08/08 07:25:45;;;;;;;0.30;0.30;;;17.20;99.90;;;;;;5093457;28;20496;-84
2022/08/08 07:28:14;;;;;;;0.50;0.20;;;17.30;99.90;;;;;;5076770;28;20555;-84
2022/08/08 07:30:43;;;;;;;0.25;0.20;;;17.40;99.90;;;;;;5071241;28;20041;-84
2022/08/08 07:33:14;;;;;;;0.52;0.28;;;17.50;99.90;;;;;;5067877;28;20043;-85
2022/08/08 07:35:41;;;;;;;0.13;0.13;;;17.60;99.90;;;;;;5057291;28;20497;-85
2022/08/08 07:38:09;;;;;;;0.20;0.20;;;17.70;99.90;;;;;;5073437;28;20098;-86
2022/08/08 07:40:37;;;;;;;0.20;0.20;;;17.90;99.90;;;;;;5074071;28;20036;-86
2022/08/08 07:43:05;;;;;;;0.63;0.40;;;18.00;99.90;;;;;;5092349;28;20563;-84
2022/08/08 07:45:31;;;;;;;0.20;0.10;;;18.30;99.90;;;;;;5057116;28;20131;-88
2022/08/08 07:47:58;;;;;;;0.80;0.35;;;18.40;99.90;;;;;;5073644;28;20103;-86
2022/08/08 07:50:25;;;;;;;0.10;0.10;;;18.60;99.90;;;;;;5041987;28;20037;-83
2022/08/08 07:52:57;;;;;;;0.20;0.20;;;18.80;99.90;;;;;;5076860;28;20044;-85
2022/08/08 07:55:33;;;;;;;1.55;0.30;;;18.90;99.90;;;;;;5053810;28;20048;-85
2022/08/08 07:58:25;;;;;;;0.15;0.10;;;19.10;99.90;;;;;;5056747;28;20049;-83
2022/08/08 08:01:01;;;;;;;0.10;0.10;;;19.30;99.90;;;;;;5073047;28;20040;-84
2022/08/08 08:03:52;;;;;;;0.73;0.38;;;19.40;99.90;;;;;;5072517;28;20404;-86
2022/08/08 08:06:20;;;;;;;0.20;0.20;;;19.50;99.90;;;;;;5073091;28;20408;-87
2022/08/08 08:08:52;;;;;;;0.40;0.25;;;19.70;99.90;;;;;;5073060;28;20068;-88
2022/08/08 08:11:22;;;;;;;0.20;0.20;;;19.90;99.90;;;;;;5073246;28;20047;-86
2022/08/08 08:13:52;;;;;;;0.13;0.13;;;20.10;99.90;;;;;;5072553;28;20045;-87
2022/08/08 08:16:28;;;;;;;0.10;0.10;;;20.30;99.90;;;;;;5089062;28;20036;-83
2022/08/08 08:19:05;;;;;;;0.10;0.10;;;20.50;99.90;;;;;;5092961;28;20485;-86
2022/08/08 08:21:42;;;;;;;0.10;0.10;;;20.50;99.90;;;;;;5093091;28;20396;-86
2022/08/08 08:24:09;;;;;;;0.15;0.15;;;20.60;99.90;;;;;;5093714;28;20039;-86
2022/08/08 08:26:36;;;;;;;0.10;0.10;;;20.60;99.90;;;;;;5093360;28;20882;-83
2022/08/08 08:29:04;;;;;;;0.10;0.10;;;20.70;99.90;;;;;;5092485;28;20047;-83
2022/08/08 08:31:31;;;;;;;0.10;0.10;;;20.80;99.90;;;;;;5109527;28;20043;-85
2022/08/08 08:33:58;;;;;;;0.70;0.17;;;20.80;99.90;;;;;;5076844;28;20058;-87
2022/08/08 08:36:25;;;;;;;0.10;0.10;;;21.00;99.90;;;;;;5045480;28;20037;-87
2022/08/08 08:38:52;;;;;;;2.33;0.28;;;21.20;99.90;;;;;;5051452;28;20047;-85
2022/08/08 08:41:19;;;;;;;0.13;0.10;;;21.30;99.90;;;;;;5097039;28;20036;-85
2022/08/08 08:43:49;;;;;;;0.10;0.10;;;21.50;99.90;;;;;;5063735;28;20044;-90
2022/08/08 08:46:15;;;;;;;0.10;0.10;;;21.60;99.90;;;;;;5097515;28;20115;-90
2022/08/08 08:48:43;;;;;;;0.32;0.32;;;21.70;99.90;;;;;;5080185;28;20068;-90
2022/08/08 08:51:12;;;;;;;0.25;0.10;;;21.60;99.90;;;;;;5080858;28;20040;-89
2022/08/08 08:53:51;;;;;;;0.20;0.20;;;21.50;99.90;;;;;;5112968;28;20052;-90
2022/08/08 08:56:20;;;;;;;0.13;0.10;;;21.20;99.90;;;;;;5096835;28;20032;-86
2022/08/08 08:58:48;;;;;;;0.05;0.05;;;21.00;99.90;;;;;;5089080;28;20033;-89
2022/08/08 09:01:25;;;;;;;0.10;0.10;;;20.80;99.90;;;;;;5051946;28;20045;-85
2022/08/08 09:03:55;;;;;;;0.10;0.10;;;20.70;99.90;;;;;;5060310;28;20040;-90
2022/08/08 09:06:34;;;;;;;0.15;0.15;;;20.60;99.90;;;;;;5096364;28;20822;-90
2022/08/08 09:09:06;;;;;;;0.20;0.20;;;20.50;99.90;;;;;;5096442;28;20043;-89
2022/08/08 09:11:35;;;;;;;0.10;0.10;;;20.40;99.90;;;;;;5097555;28;20690;-89
2022/08/08 09:14:03;;;;;;;0.17;0.17;;;20.30;99.90;;;;;;5081593;28;20054;-86
2022/08/08 09:16:33;;;;;;;0.10;0.10;;;20.30;99.90;;;;;;5096320;28;20055;-86
2022/08/08 09:19:00;;;;;;;0.10;0.10;;;20.20;99.90;;;;;;5080176;28;20105;-86
2022/08/08 09:21:28;;;;;;;0.10;0.10;;;20.20;99.90;;;;;;5096681;28;20083;-86
2022/08/08 09:23:55;;;;;;;0.10;0.10;;;20.20;99.90;;;;;;5096172;28;20093;-89
2022/08/08 09:26:46;;;;;;;0.10;0.10;;;20.20;99.90;;;;;;5065956;28;20044;-89
2022/08/08 09:29:21;;;;;;;0.05;0.05;;;20.20;99.90;;;;;;5076210;28;20130;-86
2022/08/08 09:31:52;;;;;;;;;;;20.20;99.90;;;;;;5056616;28;20073;-90
2022/08/08 09:34:20;;;;;;;0.05;0.05;;;20.20;99.90;;;;;;5090012;28;20331;-90
2022/08/08 09:36:59;;;;;;;0.00;0.00;;;20.20;99.90;;;;;;5075591;28;20075;-89
2022/08/08 09:39:30;;;;;;;0.10;0.10;;;20.10;99.90;;;;;;5068326;28;20036;-90
2022/08/08 09:42:02;;;;;;;0.30;0.20;;;20.00;99.90;;;;;;5084685;28;20049;-85
2022/08/08 09:45:06;;;;;;;0.20;0.20;;;20.20;99.90;;;;;;5072095;28;20045;-84
2022/08/08 09:47:38;;;;;;;0.00;0.00;;;20.20;99.90;;;;;;5060251;28;20035;-90
2022/08/08 09:50:16;;;;;;;0.15;0.13;;;20.20;99.90;;;;;;5058780;28;20036;-85
2022/08/08 09:52:49;;;;;;;0.00;0.00;;;20.20;99.90;;;;;;5072906;28;20068;-86
2022/08/08 09:55:17;;;;;;;0.10;0.10;;;20.20;99.90;;;;;;5070456;28;20041;-87
2022/08/08 09:57:50;;;;;;;0.20;0.20;;;20.30;99.90;;;;;;5038593;28;20095;-86
2022/08/08 10:00:18;;;;;;;0.08;0.08;;;20.30;99.90;;;;;;5072140;28;20135;-90
2022/08/08 10:02:51;;;;;;;0.30;0.25;;;20.40;99.90;;;;;;5071286;28;20094;-87
2022/08/08 10:05:23;;;;;;;0.10;0.10;;;20.40;99.90;;;;;;5068583;28;20037;-88
2022/08/08 10:07:49;;;;;;;0.10;0.10;;;20.40;99.90;;;;;;5055422;28;20044;-88
2022/08/08 10:10:27;;;;;;;0.20;0.20;;;20.40;99.90;;;;;;5070720;28;20055;-88
2022/08/08 10:12:55;;;;;;;0.20;0.20;;;20.40;99.90;;;;;;5065481;28;20102;-88
2022/08/08 10:15:24;;;;;;;0.98;0.30;;;20.60;99.90;;;;;;5055503;28;20095;-88
2022/08/08 10:17:52;;;;;;;0.20;0.20;;;20.80;99.90;;;;;;5054516;28;20037;-87
2022/08/08 10:20:20;;;;;;;0.40;0.20;;;21.10;99.90;;;;;;5071942;28;20037;-86
2022/08/08 10:23:03;;;;;;;0.20;0.20;;;21.20;99.90;;;;;;5047747;28;20040;-87
2022/08/08 10:25:30;;;;;;;0.65;0.40;;;21.60;99.90;;;;;;5059625;28;20045;-88
2022/08/08 10:27:58;;;;;;;0.30;0.30;;;21.70;99.90;;;;;;5054994;28;20044;-88
2022/08/08 10:30:25;;;;;;;0.68;0.32;;;22.00;99.90;;;;;;5035052;28;20041;-88
2022/08/08 10:32:55;;;;;;;0.40;0.35;;;22.10;99.90;;;;;;5063988;28;20040;-87
2022/08/08 10:35:25;;;;;;;0.20;0.20;;;22.10;99.90;;;;;;5076069;28;20045;-87
2022/08/08 10:38:01;;;;;;;0.35;0.30;;;22.00;99.90;;;;;;5060381;28;20749;-85
2022/08/08 10:40:30;;;;;;;0.17;0.17;;;21.90;99.90;;;;;;5067001;28;20128;-87
2022/08/08 10:43:00;;;;;;;0.00;0.00;;;21.80;99.90;;;;;;5069878;28;20048;-88
2022/08/08 10:45:27;;;;;;;0.13;0.13;;;21.60;99.90;;;;;;5087218;28;20501;-86
2022/08/08 10:47:56;;;;;;;0.10;0.10;;;21.50;99.90;;;;;;5053540;28;20041;-85
2022/08/08 10:50:35;;;;;;;0.08;0.08;;;21.30;99.90;;;;;;5070008;28;20041;-87
2022/08/08 10:53:11;;;;;;;0.10;0.10;;;21.20;99.90;;;;;;5070796;28;20053;-85
2022/08/08 10:55:38;;;;;;;0.25;0.10;;;21.00;99.90;;;;;;5070046;28;20079;-87
2022/08/08 10:58:07;;;;;;;0.40;0.20;;;20.90;99.90;;;;;;5054318;28;20036;-87
2022/08/08 11:00:40;;;;;;;0.10;0.10;;;20.70;99.90;;;;;;5066690;28;20033;-86
2022/08/08 11:03:14;;;;;;;0.35;0.10;;;20.60;99.90;;;;;;5053962;28;20087;-88
2022/08/08 11:05:48;;;;;;;0.22;0.13;;;20.50;99.90;;;;;;5065211;28;20052;-85
2022/08/08 11:08:25;;;;;;;0.10;0.10;;;20.40;99.90;;;;;;5091034;28;20071;-86
2022/08/08 11:11:09;;;;;;;0.20;0.20;;;20.30;99.90;;;;;;5090026;28;20279;-86
2022/08/08 11:13:44;;;;;;;0.95;0.30;;;20.30;99.90;;;;;;5078778;28;20045;-89
2022/08/08 11:16:22;;;;;;;0.13;0.13;;;20.20;99.90;;;;;;5053327;28;20135;-86
2022/08/08 11:18:50;;;;;;;0.15;0.10;;;20.20;99.90;;;;;;5086389;28;20041;-86
2022/08/08 11:21:18;;;;;;;0.00;0.00;;;20.20;99.90;;;;;;5069276;28;20037;-86
2022/08/08 11:23:46;;;;;;;0.00;0.00;;;20.10;99.90;;;;;;5061773;28;20090;-89
2022/08/08 11:26:16;;;;;;;0.10;0.10;;;20.10;99.90;;;;;;5063929;28;20513;-88
2022/08/08 11:28:44;;;;;;;0.17;0.10;;;20.10;99.90;;;;;;5053488;28;20041;-88
2022/08/08 11:31:15;;;;;;;0.17;0.10;;;20.10;99.90;;;;;;5066076;28;20106;-86
2022/08/08 11:33:47;;;;;;;0.10;0.10;;;20.00;99.90;;;;;;5064458;28;20068;-88
2022/08/08 11:36:15;;;;;;;0.28;0.28;;;20.10;99.90;;;;;;5058982;28;20039;-85
2022/08/08 11:38:44;;;;;;;0.08;0.08;;;20.10;99.90;;;;;;5054504;28;20044;-88
2022/08/08 11:41:11;;;;;;;0.10;0.10;;;20.10;99.90;;;;;;5069929;28;20063;-86
2022/08/08 11:43:40;;;;;;;0.10;0.10;;;20.10;99.90;;;;;;5066143;28;20038;-86
2022/08/08 11:46:07;;;;;;;0.17;0.17;;;20.10;99.90;;;;;;5033614;28;20060;-86
2022/08/08 11:48:35;;;;;;;0.95;0.50;;;20.20;99.90;;;;;;5050391;28;20490;-88
2022/08/08 11:51:02;;;;;;;0.10;0.10;;;20.20;99.90;;;;;;5034422;28;20080;-86
2022/08/08 11:53:30;;;;;;;0.15;0.15;;;20.20;99.90;;;;;;5033669;28;20111;-88
2022/08/08 11:55:56;;;;;;;0.10;0.10;;;20.30;99.90;;;;;;5064205;28;20453;-88
2022/08/08 11:58:35;;;;;;;0.10;0.10;;;20.30;99.90;;;;;;5053353;28;20083;-85
2022/08/08 12:01:04;;;;;;;0.20;0.20;;;20.30;99.90;;;;;;5054181;28;20489;-86
2022/08/08 12:03:32;;;;;;;0.10;0.10;;;20.40;99.90;;;;;;5052729;28;20033;-88
2022/08/08 12:06:10;;;;;;;0.10;0.10;;;20.40;99.90;;;;;;5070306;28;20036;-88
2022/08/08 12:08:37;;;;;;;0.20;0.20;;;20.50;99.90;;;;;;5070095;28;20477;-88
2022/08/08 12:11:18;;;;;;;0.20;0.20;;;20.60;99.90;;;;;;5052048;28;20037;-89
2022/08/08 12:13:49;;;;;;;0.10;0.10;;;20.60;99.90;;;;;;5069248;28;20140;-90
2022/08/08 12:16:18;;;;;;;0.25;0.25;;;20.70;99.90;;;;;;5062715;28;20049;-86
2022/08/08 12:18:53;;;;;;;0.30;0.25;;;20.80;99.90;;;;;;5065468;28;20037;-82
2022/08/08 12:21:27;;;;;;;0.28;0.28;;;20.70;99.90;;;;;;5069639;28;20080;-82
2022/08/08 12:24:12;;;;;;;0.30;0.20;;;20.80;99.90;;;;;;5081806;28;20037;-81
2022/08/08 12:26:44;;;;;;;0.07;0.07;;;21.00;99.90;;;;;;5065471;28;20406;-81
2022/08/08 12:29:36;;;;;;;0.45;0.30;;;21.00;99.90;;;;;;5100133;28;20279;-81
2022/08/08 12:32:08;;;;;;;0.00;0.00;;;21.10;99.90;;;;;;5068986;28;20549;-82
2022/08/08 12:34:38;;;;;;;0.13;0.08;;;21.30;99.90;;;;;;5085415;28;20052;-82
2022/08/08 12:37:09;;;;;;;0.10;0.10;;;21.40;99.90;;;;;;5068325;28;20043;-82
2022/08/08 12:39:37;;;;;;;0.20;0.20;;;21.60;99.90;;;;;;5068857;28;20037;-82
2022/08/08 12:42:04;;;;;;;0.20;0.20;;;21.70;99.90;;;;;;5067313;28;20178;-82
2022/08/08 12:44:31;;;;;;;0.10;0.10;;;21.70;99.90;;;;;;5052225;28;20045;-82
2022/08/08 12:46:59;;;;;;;0.20;0.17;;;21.80;99.90;;;;;;5052280;28;20048;-82
2022/08/08 12:49:27;;;;;;;0.22;0.13;;;21.90;99.90;;;;;;5070749;28;20120;-82
2022/08/08 12:51:55;;;;;;;0.10;0.10;;;21.90;99.90;;;;;;5085481;28;20036;-83
2022/08/08 12:54:24;;;;;;;0.03;0.03;;;21.90;99.90;;;;;;5035545;28;20428;-82
2022/08/08 12:56:52;;;;;;;0.10;0.10;;;21.90;99.90;;;;;;5085040;28;20090;-82
2022/08/08 12:59:24;;;;;;;0.25;0.10;;;21.90;99.90;;;;;;5077730;28;20029;-82
2022/08/08 13:02:01;;;;;;;0.10;0.10;;;21.90;99.90;;;;;;5105383;28;20077;-83
2022/08/08 13:04:33;;;;;;;0.10;0.10;;;21.80;99.90;;;;;;5071906;28;20510;-81
2022/08/08 13:07:06;;;;;;;0.10;0.10;;;21.80;99.90;;;;;;5072849;28;20048;-82
2022/08/08 13:09:37;;;;;;;0.43;0.20;;;21.90;99.90;;;;;;5096691;28;20033;-83
2022/08/08 13:12:11;;;;;;;0.30;0.30;;;21.90;99.90;;;;;;5084962;28;20044;-83
2022/08/08 13:14:50;;;;;;;0.13;0.13;;;21.80;99.90;;;;;;5084802;28;20048;-82
2022/08/08 13:17:21;;;;;;;0.08;0.08;;;21.80;99.90;;;;;;5051539;28;20131;-82
2022/08/08 13:19:48;;;;;;;0.25;0.10;;;21.80;99.90;;;;;;5068883;28;20036;-82
2022/08/08 13:22:16;;;;;;;0.10;0.10;;;21.90;99.90;;;;;;5077518;28;20032;-81
2022/08/08 13:24:43;;;;;;;0.10;0.10;;;21.90;99.90;;;;;;5084745;28;20036;-81
2022/08/08 13:27:17;;;;;;;0.10;0.10;;;21.90;99.90;;;;;;5091985;28;20482;-81